sensor_id;sensor_type;location;lat;lon;timestamp;P1;durP1;ratioP1;P2;durP2;ratioP2
8708;SDS011;4391;48.678;9.280;2023-02-28T00:00:50;5.00;;;1.85;;
8708;SDS011;4391;48.678;9.280;2023-02-28T00:03:17;4.93;;;1.60;;
8708;SDS011;4391;48.678;9.280;2023-02-28T00:05:44;5.37;;;2.00;;
8708;SDS011;4391;48.678;9.280;2023-02-28T00:08:10;5.65;;;1.75;;
8708;SDS011;4391;48.678;9.280;2023-02-28T00:10:38;5.05;;;1.63;;
8708;SDS011;4391;48.678;9.280;2023-02-28T00:13:06;7.00;;;1.80;;
8708;SDS011;4391;48.678;9.280;2023-02-28T00:15:33;6.57;;;1.50;;
8708;SDS011;4391;48.678;9.280;2023-02-28T00:18:00;6.37;;;1.60;;
8708;SDS011;4391;48.678;9.280;2023-02-28T00:20:28;4.40;;;1.83;;
8708;SDS011;4391;48.678;9.280;2023-02-28T00:22:55;6.18;;;1.67;;
8708;SDS011;4391;48.678;9.280;2023-02-28T00:25:22;5.18;;;1.75;;
8708;SDS011;4391;48.678;9.280;2023-02-28T00:27:51;5.95;;;1.98;;
8708;SDS011;4391;48.678;9.280;2023-02-28T00:30:19;5.43;;;1.63;;
8708;SDS011;4391;48.678;9.280;2023-02-28T00:32:48;4.03;;;1.52;;
8708;SDS011;4391;48.678;9.280;2023-02-28T00:35:17;5.35;;;1.73;;
8708;SDS011;4391;48.678;9.280;2023-02-28T00:37:44;8.32;;;2.08;;
8708;SDS011;4391;48.678;9.280;2023-02-28T00:40:11;4.50;;;1.48;;
8708;SDS011;4391;48.678;9.280;2023-02-28T00:42:38;5.90;;;1.43;;
8708;SDS011;4391;48.678;9.280;2023-02-28T00:45:06;4.93;;;1.63;;
8708;SDS011;4391;48.678;9.280;2023-02-28T00:47:35;5.53;;;1.48;;
8708;SDS011;4391;48.678;9.280;2023-02-28T00:50:02;4.72;;;1.83;;
8708;SDS011;4391;48.678;9.280;2023-02-28T00:52:30;5.28;;;1.70;;
8708;SDS011;4391;48.678;9.280;2023-02-28T00:54:57;7.30;;;2.00;;
8708;SDS011;4391;48.678;9.280;2023-02-28T00:57:24;5.30;;;1.90;;
8708;SDS011;4391;48.678;9.280;2023-02-28T00:59:51;5.65;;;1.83;;
8708;SDS011;4391;48.678;9.280;2023-02-28T01:02:19;5.70;;;1.88;;
8708;SDS011;4391;48.678;9.280;2023-02-28T01:04:47;4.03;;;1.63;;
8708;SDS011;4391;48.678;9.280;2023-02-28T01:07:15;5.70;;;1.83;;
8708;SDS011;4391;48.678;9.280;2023-02-28T01:09:42;5.93;;;1.50;;
8708;SDS011;4391;48.678;9.280;2023-02-28T01:12:08;6.95;;;1.85;;
8708;SDS011;4391;48.678;9.280;2023-02-28T01:14:35;5.97;;;1.95;;
8708;SDS011;4391;48.678;9.280;2023-02-28T01:17:03;7.13;;;1.92;;
8708;SDS011;4391;48.678;9.280;2023-02-28T01:19:30;5.00;;;2.10;;
8708;SDS011;4391;48.678;9.280;2023-02-28T01:21:58;4.35;;;1.58;;
8708;SDS011;4391;48.678;9.280;2023-02-28T01:24:27;5.80;;;1.73;;
8708;SDS011;4391;48.678;9.280;2023-02-28T01:26:54;5.30;;;1.73;;
8708;SDS011;4391;48.678;9.280;2023-02-28T01:29:21;6.00;;;1.95;;
8708;SDS011;4391;48.678;9.280;2023-02-28T01:31:47;4.83;;;1.83;;
8708;SDS011;4391;48.678;9.280;2023-02-28T01:34:14;5.53;;;1.88;;
8708;SDS011;4391;48.678;9.280;2023-02-28T01:36:41;5.03;;;1.90;;
8708;SDS011;4391;48.678;9.280;2023-02-28T01:39:09;5.18;;;2.00;;
8708;SDS011;4391;48.678;9.280;2023-02-28T01:41:37;5.68;;;2.10;;
8708;SDS011;4391;48.678;9.280;2023-02-28T01:44:05;8.20;;;1.80;;
8708;SDS011;4391;48.678;9.280;2023-02-28T01:46:34;7.75;;;2.17;;
8708;SDS011;4391;48.678;9.280;2023-02-28T01:49:03;5.20;;;1.80;;
8708;SDS011;4391;48.678;9.280;2023-02-28T01:51:37;5.25;;;1.90;;
8708;SDS011;4391;48.678;9.280;2023-02-28T01:54:12;7.38;;;2.03;;
8708;SDS011;4391;48.678;9.280;2023-02-28T01:56:44;6.40;;;2.20;;
8708;SDS011;4391;48.678;9.280;2023-02-28T01:59:14;5.38;;;2.10;;
8708;SDS011;4391;48.678;9.280;2023-02-28T02:01:47;6.18;;;2.15;;
8708;SDS011;4391;48.678;9.280;2023-02-28T02:04:15;4.57;;;1.83;;
8708;SDS011;4391;48.678;9.280;2023-02-28T02:06:42;5.10;;;1.90;;
8708;SDS011;4391;48.678;9.280;2023-02-28T02:09:13;5.47;;;2.00;;
8708;SDS011;4391;48.678;9.280;2023-02-28T02:11:40;6.30;;;2.25;;
8708;SDS011;4391;48.678;9.280;2023-02-28T02:14:14;7.70;;;2.25;;
8708;SDS011;4391;48.678;9.280;2023-02-28T02:17:05;5.32;;;2.05;;
8708;SDS011;4391;48.678;9.280;2023-02-28T02:22:50;5.50;;;2.20;;
8708;SDS011;4391;48.678;9.280;2023-02-28T02:25:37;6.45;;;2.33;;
8708;SDS011;4391;48.678;9.280;2023-02-28T02:31:14;6.05;;;2.45;;
8708;SDS011;4391;48.678;9.280;2023-02-28T02:34:10;5.43;;;2.50;;
8708;SDS011;4391;48.678;9.280;2023-02-28T02:36:57;9.57;;;2.67;;
8708;SDS011;4391;48.678;9.280;2023-02-28T02:39:33;9.32;;;2.22;;
8708;SDS011;4391;48.678;9.280;2023-02-28T02:42:11;5.22;;;2.30;;
8708;SDS011;4391;48.678;9.280;2023-02-28T02:44:42;9.20;;;2.47;;
8708;SDS011;4391;48.678;9.280;2023-02-28T02:47:14;5.20;;;2.30;;
8708;SDS011;4391;48.678;9.280;2023-02-28T02:49:45;7.27;;;2.30;;
8708;SDS011;4391;48.678;9.280;2023-02-28T02:52:16;8.23;;;2.08;;
8708;SDS011;4391;48.678;9.280;2023-02-28T02:54:48;7.45;;;2.33;;
8708;SDS011;4391;48.678;9.280;2023-02-28T02:57:20;6.82;;;2.47;;
8708;SDS011;4391;48.678;9.280;2023-02-28T02:59:51;6.57;;;1.98;;
8708;SDS011;4391;48.678;9.280;2023-02-28T03:02:21;6.63;;;2.53;;
8708;SDS011;4391;48.678;9.280;2023-02-28T03:04:52;5.85;;;2.35;;
8708;SDS011;4391;48.678;9.280;2023-02-28T03:07:25;6.13;;;2.45;;
8708;SDS011;4391;48.678;9.280;2023-02-28T03:09:53;5.53;;;2.10;;
8708;SDS011;4391;48.678;9.280;2023-02-28T03:12:21;7.07;;;2.35;;
8708;SDS011;4391;48.678;9.280;2023-02-28T03:14:55;7.47;;;2.40;;
8708;SDS011;4391;48.678;9.280;2023-02-28T03:17:44;6.35;;;2.38;;
8708;SDS011;4391;48.678;9.280;2023-02-28T03:20:23;7.03;;;2.63;;
8708;SDS011;4391;48.678;9.280;2023-02-28T03:23:03;6.57;;;2.30;;
8708;SDS011;4391;48.678;9.280;2023-02-28T03:25:42;4.85;;;2.10;;
8708;SDS011;4391;48.678;9.280;2023-02-28T03:28:22;7.37;;;2.47;;
8708;SDS011;4391;48.678;9.280;2023-02-28T03:30:57;5.43;;;2.08;;
8708;SDS011;4391;48.678;9.280;2023-02-28T03:33:30;7.22;;;2.42;;
8708;SDS011;4391;48.678;9.280;2023-02-28T03:36:03;6.47;;;2.50;;
8708;SDS011;4391;48.678;9.280;2023-02-28T03:38:33;6.40;;;2.50;;
8708;SDS011;4391;48.678;9.280;2023-02-28T03:41:05;4.97;;;2.27;;
8708;SDS011;4391;48.678;9.280;2023-02-28T03:43:38;5.65;;;2.35;;
8708;SDS011;4391;48.678;9.280;2023-02-28T03:46:08;6.07;;;2.50;;
8708;SDS011;4391;48.678;9.280;2023-02-28T03:48:40;6.60;;;2.45;;
8708;SDS011;4391;48.678;9.280;2023-02-28T03:51:12;5.85;;;2.58;;
8708;SDS011;4391;48.678;9.280;2023-02-28T03:53:44;6.73;;;2.60;;
8708;SDS011;4391;48.678;9.280;2023-02-28T03:56:17;6.88;;;2.88;;
8708;SDS011;4391;48.678;9.280;2023-02-28T03:58:47;6.22;;;2.63;;
8708;SDS011;4391;48.678;9.280;2023-02-28T04:01:19;7.50;;;2.53;;
8708;SDS011;4391;48.678;9.280;2023-02-28T04:03:48;6.68;;;2.53;;
8708;SDS011;4391;48.678;9.280;2023-02-28T04:06:18;6.47;;;2.47;;
8708;SDS011;4391;48.678;9.280;2023-02-28T04:08:46;6.53;;;2.80;;
8708;SDS011;4391;48.678;9.280;2023-02-28T04:11:18;7.85;;;3.35;;
8708;SDS011;4391;48.678;9.280;2023-02-28T04:13:48;6.40;;;2.25;;
8708;SDS011;4391;48.678;9.280;2023-02-28T04:16:15;7.75;;;3.20;;
8708;SDS011;4391;48.678;9.280;2023-02-28T04:18:42;7.10;;;3.20;;
8708;SDS011;4391;48.678;9.280;2023-02-28T04:21:09;5.50;;;2.40;;
8708;SDS011;4391;48.678;9.280;2023-02-28T04:23:37;6.05;;;2.63;;
8708;SDS011;4391;48.678;9.280;2023-02-28T04:26:04;10.55;;;3.15;;
8708;SDS011;4391;48.678;9.280;2023-02-28T04:28:31;5.82;;;2.40;;
8708;SDS011;4391;48.678;9.280;2023-02-28T04:30:59;9.53;;;2.73;;
8708;SDS011;4391;48.678;9.280;2023-02-28T04:33:28;6.28;;;2.90;;
8708;SDS011;4391;48.678;9.280;2023-02-28T04:35:58;6.93;;;3.00;;
8708;SDS011;4391;48.678;9.280;2023-02-28T04:38:25;8.20;;;3.50;;
8708;SDS011;4391;48.678;9.280;2023-02-28T04:40:54;7.00;;;3.25;;
8708;SDS011;4391;48.678;9.280;2023-02-28T04:43:23;6.90;;;2.80;;
8708;SDS011;4391;48.678;9.280;2023-02-28T04:45:51;6.97;;;3.28;;
8708;SDS011;4391;48.678;9.280;2023-02-28T04:48:19;8.88;;;3.10;;
8708;SDS011;4391;48.678;9.280;2023-02-28T04:53:14;9.00;;;3.17;;
8708;SDS011;4391;48.678;9.280;2023-02-28T04:55:41;8.17;;;2.90;;
8708;SDS011;4391;48.678;9.280;2023-02-28T04:58:09;8.30;;;3.45;;
8708;SDS011;4391;48.678;9.280;2023-02-28T05:00:36;9.25;;;3.30;;
8708;SDS011;4391;48.678;9.280;2023-02-28T05:03:02;8.45;;;3.08;;
8708;SDS011;4391;48.678;9.280;2023-02-28T05:05:29;6.75;;;2.90;;
8708;SDS011;4391;48.678;9.280;2023-02-28T05:07:56;8.33;;;3.47;;
8708;SDS011;4391;48.678;9.280;2023-02-28T05:10:23;9.13;;;3.38;;
8708;SDS011;4391;48.678;9.280;2023-02-28T05:12:50;7.85;;;3.08;;
8708;SDS011;4391;48.678;9.280;2023-02-28T05:15:18;8.60;;;3.40;;
8708;SDS011;4391;48.678;9.280;2023-02-28T05:17:45;9.80;;;3.13;;
8708;SDS011;4391;48.678;9.280;2023-02-28T05:20:12;7.00;;;3.17;;
8708;SDS011;4391;48.678;9.280;2023-02-28T05:22:39;9.48;;;2.85;;
8708;SDS011;4391;48.678;9.280;2023-02-28T05:25:08;10.02;;;3.42;;
8708;SDS011;4391;48.678;9.280;2023-02-28T05:27:37;7.88;;;3.28;;
8708;SDS011;4391;48.678;9.280;2023-02-28T05:30:04;10.43;;;3.83;;
8708;SDS011;4391;48.678;9.280;2023-02-28T05:32:36;7.03;;;3.10;;
8708;SDS011;4391;48.678;9.280;2023-02-28T05:35:04;8.98;;;3.70;;
8708;SDS011;4391;48.678;9.280;2023-02-28T05:37:31;8.27;;;3.70;;
8708;SDS011;4391;48.678;9.280;2023-02-28T05:39:58;7.47;;;2.97;;
8708;SDS011;4391;48.678;9.280;2023-02-28T05:42:25;8.15;;;3.10;;
8708;SDS011;4391;48.678;9.280;2023-02-28T05:44:52;6.77;;;2.87;;
8708;SDS011;4391;48.678;9.280;2023-02-28T05:47:18;7.88;;;3.33;;
8708;SDS011;4391;48.678;9.280;2023-02-28T05:49:47;9.70;;;3.10;;
8708;SDS011;4391;48.678;9.280;2023-02-28T05:52:13;9.68;;;3.50;;
8708;SDS011;4391;48.678;9.280;2023-02-28T05:54:40;8.70;;;3.72;;
8708;SDS011;4391;48.678;9.280;2023-02-28T05:57:07;7.93;;;3.60;;
8708;SDS011;4391;48.678;9.280;2023-02-28T05:59:34;9.65;;;3.90;;
8708;SDS011;4391;48.678;9.280;2023-02-28T06:02:04;6.50;;;3.45;;
8708;SDS011;4391;48.678;9.280;2023-02-28T06:04:32;8.85;;;3.47;;
8708;SDS011;4391;48.678;9.280;2023-02-28T06:07:00;9.23;;;3.90;;
8708;SDS011;4391;48.678;9.280;2023-02-28T06:09:28;8.33;;;3.50;;
8708;SDS011;4391;48.678;9.280;2023-02-28T06:11:56;10.85;;;3.90;;
8708;SDS011;4391;48.678;9.280;2023-02-28T06:14:24;8.10;;;4.20;;
8708;SDS011;4391;48.678;9.280;2023-02-28T06:16:51;14.35;;;3.75;;
8708;SDS011;4391;48.678;9.280;2023-02-28T06:19:18;9.18;;;3.60;;
8708;SDS011;4391;48.678;9.280;2023-02-28T06:21:45;11.73;;;3.53;;
8708;SDS011;4391;48.678;9.280;2023-02-28T06:24:17;8.32;;;3.45;;
8708;SDS011;4391;48.678;9.280;2023-02-28T06:26:43;10.65;;;4.03;;
8708;SDS011;4391;48.678;9.280;2023-02-28T06:29:11;8.73;;;3.78;;
8708;SDS011;4391;48.678;9.280;2023-02-28T06:31:42;10.05;;;4.28;;
8708;SDS011;4391;48.678;9.280;2023-02-28T06:34:08;8.13;;;3.27;;
8708;SDS011;4391;48.678;9.280;2023-02-28T06:36:36;9.65;;;4.22;;
8708;SDS011;4391;48.678;9.280;2023-02-28T06:39:03;12.35;;;4.05;;
8708;SDS011;4391;48.678;9.280;2023-02-28T06:41:31;10.90;;;4.40;;
8708;SDS011;4391;48.678;9.280;2023-02-28T06:44:03;11.27;;;3.80;;
8708;SDS011;4391;48.678;9.280;2023-02-28T06:46:31;10.10;;;4.03;;
8708;SDS011;4391;48.678;9.280;2023-02-28T06:48:58;10.60;;;4.22;;
8708;SDS011;4391;48.678;9.280;2023-02-28T06:51:25;8.75;;;3.72;;
8708;SDS011;4391;48.678;9.280;2023-02-28T06:53:52;9.75;;;3.80;;
8708;SDS011;4391;48.678;9.280;2023-02-28T06:56:19;9.68;;;4.43;;
8708;SDS011;4391;48.678;9.280;2023-02-28T06:58:47;9.87;;;4.27;;
8708;SDS011;4391;48.678;9.280;2023-02-28T07:01:15;10.55;;;4.38;;
8708;SDS011;4391;48.678;9.280;2023-02-28T07:03:43;9.48;;;4.40;;
8708;SDS011;4391;48.678;9.280;2023-02-28T07:06:11;10.68;;;4.30;;
8708;SDS011;4391;48.678;9.280;2023-02-28T07:08:38;9.30;;;3.85;;
8708;SDS011;4391;48.678;9.280;2023-02-28T07:11:06;11.53;;;4.70;;
8708;SDS011;4391;48.678;9.280;2023-02-28T07:13:33;9.65;;;4.50;;
8708;SDS011;4391;48.678;9.280;2023-02-28T07:16:02;9.45;;;4.15;;
8708;SDS011;4391;48.678;9.280;2023-02-28T07:18:30;9.32;;;4.45;;
8708;SDS011;4391;48.678;9.280;2023-02-28T07:20:57;10.77;;;4.82;;
8708;SDS011;4391;48.678;9.280;2023-02-28T07:23:24;12.70;;;4.77;;
8708;SDS011;4391;48.678;9.280;2023-02-28T07:25:51;12.40;;;5.43;;
8708;SDS011;4391;48.678;9.280;2023-02-28T07:28:18;12.32;;;4.40;;
8708;SDS011;4391;48.678;9.280;2023-02-28T07:30:45;9.85;;;4.63;;
8708;SDS011;4391;48.678;9.280;2023-02-28T07:33:14;10.45;;;4.45;;
8708;SDS011;4391;48.678;9.280;2023-02-28T07:35:41;12.07;;;5.17;;
8708;SDS011;4391;48.678;9.280;2023-02-28T07:38:08;8.40;;;4.18;;
8708;SDS011;4391;48.678;9.280;2023-02-28T07:40:35;11.65;;;5.07;;
8708;SDS011;4391;48.678;9.280;2023-02-28T07:43:03;11.90;;;4.80;;
8708;SDS011;4391;48.678;9.280;2023-02-28T07:45:30;12.38;;;4.88;;
8708;SDS011;4391;48.678;9.280;2023-02-28T07:47:59;14.07;;;5.17;;
8708;SDS011;4391;48.678;9.280;2023-02-28T07:50:27;10.18;;;5.30;;
8708;SDS011;4391;48.678;9.280;2023-02-28T07:52:55;13.27;;;4.95;;
8708;SDS011;4391;48.678;9.280;2023-02-28T07:55:22;12.23;;;5.57;;
8708;SDS011;4391;48.678;9.280;2023-02-28T07:57:49;12.05;;;4.50;;
8708;SDS011;4391;48.678;9.280;2023-02-28T08:00:16;10.27;;;4.90;;
8708;SDS011;4391;48.678;9.280;2023-02-28T08:02:43;11.65;;;5.10;;
8708;SDS011;4391;48.678;9.280;2023-02-28T08:05:10;11.93;;;4.85;;
8708;SDS011;4391;48.678;9.280;2023-02-28T08:07:38;9.52;;;4.95;;
8708;SDS011;4391;48.678;9.280;2023-02-28T08:10:06;9.75;;;3.97;;
8708;SDS011;4391;48.678;9.280;2023-02-28T08:12:34;14.37;;;5.83;;
8708;SDS011;4391;48.678;9.280;2023-02-28T08:15:01;10.60;;;5.13;;
8708;SDS011;4391;48.678;9.280;2023-02-28T08:17:28;15.35;;;4.95;;
8708;SDS011;4391;48.678;9.280;2023-02-28T08:19:55;12.63;;;5.10;;
8708;SDS011;4391;48.678;9.280;2023-02-28T08:22:22;12.23;;;5.45;;
8708;SDS011;4391;48.678;9.280;2023-02-28T08:24:50;11.47;;;4.60;;
8708;SDS011;4391;48.678;9.280;2023-02-28T08:27:17;12.23;;;5.03;;
8708;SDS011;4391;48.678;9.280;2023-02-28T08:29:44;12.20;;;5.00;;
8708;SDS011;4391;48.678;9.280;2023-02-28T08:32:11;11.98;;;4.65;;
8708;SDS011;4391;48.678;9.280;2023-02-28T08:34:38;11.52;;;5.32;;
8708;SDS011;4391;48.678;9.280;2023-02-28T08:37:05;11.33;;;5.00;;
8708;SDS011;4391;48.678;9.280;2023-02-28T08:39:33;10.27;;;4.80;;
8708;SDS011;4391;48.678;9.280;2023-02-28T08:42:01;12.65;;;5.80;;
8708;SDS011;4391;48.678;9.280;2023-02-28T08:44:29;11.65;;;4.75;;
8708;SDS011;4391;48.678;9.280;2023-02-28T08:46:59;12.27;;;5.45;;
8708;SDS011;4391;48.678;9.280;2023-02-28T08:49:25;10.17;;;4.43;;
8708;SDS011;4391;48.678;9.280;2023-02-28T08:51:53;12.50;;;4.95;;
8708;SDS011;4391;48.678;9.280;2023-02-28T08:54:22;11.30;;;4.90;;
8708;SDS011;4391;48.678;9.280;2023-02-28T08:56:49;13.00;;;5.18;;
8708;SDS011;4391;48.678;9.280;2023-02-28T08:59:17;9.85;;;4.72;;
8708;SDS011;4391;48.678;9.280;2023-02-28T09:01:44;11.57;;;4.27;;
8708;SDS011;4391;48.678;9.280;2023-02-28T09:04:10;12.15;;;5.15;;
8708;SDS011;4391;48.678;9.280;2023-02-28T09:06:37;7.05;;;3.70;;
8708;SDS011;4391;48.678;9.280;2023-02-28T09:09:04;11.00;;;5.35;;
8708;SDS011;4391;48.678;9.280;2023-02-28T09:11:32;13.80;;;5.65;;
8708;SDS011;4391;48.678;9.280;2023-02-28T09:14:00;13.90;;;5.10;;
8708;SDS011;4391;48.678;9.280;2023-02-28T09:16:29;13.00;;;5.32;;
8708;SDS011;4391;48.678;9.280;2023-02-28T09:18:57;11.20;;;4.78;;
8708;SDS011;4391;48.678;9.280;2023-02-28T09:21:24;14.65;;;5.43;;
8708;SDS011;4391;48.678;9.280;2023-02-28T09:23:50;12.35;;;5.20;;
8708;SDS011;4391;48.678;9.280;2023-02-28T09:26:18;12.17;;;4.67;;
8708;SDS011;4391;48.678;9.280;2023-02-28T09:28:47;13.27;;;5.38;;
8708;SDS011;4391;48.678;9.280;2023-02-28T09:31:14;12.90;;;5.80;;
8708;SDS011;4391;48.678;9.280;2023-02-28T09:33:47;10.68;;;4.72;;
8708;SDS011;4391;48.678;9.280;2023-02-28T09:36:14;11.45;;;5.13;;
8708;SDS011;4391;48.678;9.280;2023-02-28T09:38:41;18.17;;;4.57;;
8708;SDS011;4391;48.678;9.280;2023-02-28T09:41:10;11.73;;;4.47;;
8708;SDS011;4391;48.678;9.280;2023-02-28T09:43:40;11.30;;;4.40;;
8708;SDS011;4391;48.678;9.280;2023-02-28T09:46:12;11.45;;;5.22;;
8708;SDS011;4391;48.678;9.280;2023-02-28T09:48:48;11.55;;;5.03;;
8708;SDS011;4391;48.678;9.280;2023-02-28T09:51:23;10.37;;;5.10;;
8708;SDS011;4391;48.678;9.280;2023-02-28T09:53:56;14.43;;;5.45;;
8708;SDS011;4391;48.678;9.280;2023-02-28T09:56:24;12.48;;;5.45;;
8708;SDS011;4391;48.678;9.280;2023-02-28T09:58:55;10.88;;;5.15;;
8708;SDS011;4391;48.678;9.280;2023-02-28T10:01:28;10.07;;;4.82;;
8708;SDS011;4391;48.678;9.280;2023-02-28T10:04:05;11.40;;;5.00;;
8708;SDS011;4391;48.678;9.280;2023-02-28T10:06:39;8.77;;;4.30;;
8708;SDS011;4391;48.678;9.280;2023-02-28T10:09:11;10.70;;;4.72;;
8708;SDS011;4391;48.678;9.280;2023-02-28T10:11:43;11.18;;;5.07;;
8708;SDS011;4391;48.678;9.280;2023-02-28T10:14:13;12.45;;;5.45;;
8708;SDS011;4391;48.678;9.280;2023-02-28T10:16:42;14.47;;;5.30;;
8708;SDS011;4391;48.678;9.280;2023-02-28T10:19:19;10.52;;;4.72;;
8708;SDS011;4391;48.678;9.280;2023-02-28T10:21:51;10.82;;;4.82;;
8708;SDS011;4391;48.678;9.280;2023-02-28T10:24:23;9.88;;;4.65;;
8708;SDS011;4391;48.678;9.280;2023-02-28T10:26:56;13.10;;;4.85;;
8708;SDS011;4391;48.678;9.280;2023-02-28T10:29:28;10.07;;;4.87;;
8708;SDS011;4391;48.678;9.280;2023-02-28T10:31:59;10.85;;;4.68;;
8708;SDS011;4391;48.678;9.280;2023-02-28T10:34:29;15.52;;;5.93;;
8708;SDS011;4391;48.678;9.280;2023-02-28T10:36:56;11.65;;;4.78;;
8708;SDS011;4391;48.678;9.280;2023-02-28T10:39:39;10.57;;;4.45;;
8708;SDS011;4391;48.678;9.280;2023-02-28T10:42:18;11.40;;;4.73;;
8708;SDS011;4391;48.678;9.280;2023-02-28T10:44:50;13.27;;;5.72;;
8708;SDS011;4391;48.678;9.280;2023-02-28T10:47:32;10.90;;;5.40;;
8708;SDS011;4391;48.678;9.280;2023-02-28T10:50:03;10.25;;;4.82;;
8708;SDS011;4391;48.678;9.280;2023-02-28T10:52:33;13.10;;;5.60;;
8708;SDS011;4391;48.678;9.280;2023-02-28T10:55:18;14.67;;;5.33;;
8708;SDS011;4391;48.678;9.280;2023-02-28T10:57:47;11.65;;;5.32;;
8708;SDS011;4391;48.678;9.280;2023-02-28T11:00:16;14.65;;;5.78;;
8708;SDS011;4391;48.678;9.280;2023-02-28T11:02:45;10.82;;;5.15;;
8708;SDS011;4391;48.678;9.280;2023-02-28T11:05:26;11.57;;;5.13;;
8708;SDS011;4391;48.678;9.280;2023-02-28T11:07:55;11.33;;;4.70;;
8708;SDS011;4391;48.678;9.280;2023-02-28T11:10:26;11.75;;;5.50;;
8708;SDS011;4391;48.678;9.280;2023-02-28T11:12:57;13.57;;;5.40;;
8708;SDS011;4391;48.678;9.280;2023-02-28T11:15:25;13.32;;;5.20;;
8708;SDS011;4391;48.678;9.280;2023-02-28T11:17:53;12.40;;;4.97;;
8708;SDS011;4391;48.678;9.280;2023-02-28T11:20:23;13.30;;;5.73;;
8708;SDS011;4391;48.678;9.280;2023-02-28T11:22:53;12.63;;;5.68;;
8708;SDS011;4391;48.678;9.280;2023-02-28T11:25:24;10.77;;;5.28;;
8708;SDS011;4391;48.678;9.280;2023-02-28T11:27:53;10.48;;;4.55;;
8708;SDS011;4391;48.678;9.280;2023-02-28T11:30:29;11.13;;;5.55;;
8708;SDS011;4391;48.678;9.280;2023-02-28T11:33:01;13.10;;;6.13;;
8708;SDS011;4391;48.678;9.280;2023-02-28T11:35:46;10.10;;;5.60;;
8708;SDS011;4391;48.678;9.280;2023-02-28T11:38:15;9.98;;;5.15;;
8708;SDS011;4391;48.678;9.280;2023-02-28T11:40:43;11.75;;;5.80;;
8708;SDS011;4391;48.678;9.280;2023-02-28T11:43:21;12.35;;;5.65;;
8708;SDS011;4391;48.678;9.280;2023-02-28T11:46:03;13.77;;;6.20;;
8708;SDS011;4391;48.678;9.280;2023-02-28T11:48:41;13.10;;;5.38;;
8708;SDS011;4391;48.678;9.280;2023-02-28T11:51:17;11.90;;;5.30;;
8708;SDS011;4391;48.678;9.280;2023-02-28T11:53:55;10.45;;;5.63;;
8708;SDS011;4391;48.678;9.280;2023-02-28T11:56:33;10.88;;;5.68;;
8708;SDS011;4391;48.678;9.280;2023-02-28T11:59:09;9.27;;;5.70;;
8708;SDS011;4391;48.678;9.280;2023-02-28T12:02:14;9.80;;;5.95;;
8708;SDS011;4391;48.678;9.280;2023-02-28T12:07:45;10.80;;;5.38;;
8708;SDS011;4391;48.678;9.280;2023-02-28T12:10:21;12.63;;;5.65;;
8708;SDS011;4391;48.678;9.280;2023-02-28T12:12:54;9.77;;;4.80;;
8708;SDS011;4391;48.678;9.280;2023-02-28T12:18:34;12.05;;;6.07;;
8708;SDS011;4391;48.678;9.280;2023-02-28T12:21:18;10.55;;;5.82;;
8708;SDS011;4391;48.678;9.280;2023-02-28T12:26:48;12.13;;;5.97;;
8708;SDS011;4391;48.678;9.280;2023-02-28T12:29:19;12.02;;;5.50;;
8708;SDS011;4391;48.678;9.280;2023-02-28T12:31:49;11.63;;;5.95;;
8708;SDS011;4391;48.678;9.280;2023-02-28T12:34:20;10.45;;;5.88;;
8708;SDS011;4391;48.678;9.280;2023-02-28T12:36:50;9.50;;;5.40;;
8708;SDS011;4391;48.678;9.280;2023-02-28T12:39:23;10.23;;;5.70;;
8708;SDS011;4391;48.678;9.280;2023-02-28T12:41:53;9.18;;;5.20;;
8708;SDS011;4391;48.678;9.280;2023-02-28T12:44:23;9.40;;;5.57;;
8708;SDS011;4391;48.678;9.280;2023-02-28T12:46:55;8.93;;;5.80;;
8708;SDS011;4391;48.678;9.280;2023-02-28T12:49:25;10.02;;;5.80;;
8708;SDS011;4391;48.678;9.280;2023-02-28T12:51:57;12.07;;;6.40;;
8708;SDS011;4391;48.678;9.280;2023-02-28T12:54:28;8.88;;;5.80;;
8708;SDS011;4391;48.678;9.280;2023-02-28T12:57:01;9.40;;;5.72;;
8708;SDS011;4391;48.678;9.280;2023-02-28T12:59:34;9.57;;;5.50;;
8708;SDS011;4391;48.678;9.280;2023-02-28T13:05:07;12.10;;;5.60;;
8708;SDS011;4391;48.678;9.280;2023-02-28T13:11:02;8.50;;;5.35;;
8708;SDS011;4391;48.678;9.280;2023-02-28T13:13:30;9.75;;;5.40;;
8708;SDS011;4391;48.678;9.280;2023-02-28T13:15:58;9.60;;;5.30;;
8708;SDS011;4391;48.678;9.280;2023-02-28T13:18:28;8.47;;;5.60;;
8708;SDS011;4391;48.678;9.280;2023-02-28T13:20:57;9.10;;;5.45;;
8708;SDS011;4391;48.678;9.280;2023-02-28T13:23:40;9.25;;;5.10;;
8708;SDS011;4391;48.678;9.280;2023-02-28T13:29:34;9.18;;;5.40;;
8708;SDS011;4391;48.678;9.280;2023-02-28T13:38:16;8.70;;;4.95;;
8708;SDS011;4391;48.678;9.280;2023-02-28T13:43:59;8.02;;;5.10;;
8708;SDS011;4391;48.678;9.280;2023-02-28T13:46:28;8.90;;;5.50;;
8708;SDS011;4391;48.678;9.280;2023-02-28T13:48:55;9.27;;;5.33;;
8708;SDS011;4391;48.678;9.280;2023-02-28T13:51:27;8.60;;;5.80;;
8708;SDS011;4391;48.678;9.280;2023-02-28T13:54:07;9.70;;;5.97;;
8708;SDS011;4391;48.678;9.280;2023-02-28T13:56:48;8.05;;;5.43;;
8708;SDS011;4391;48.678;9.280;2023-02-28T13:59:28;7.57;;;5.00;;
8708;SDS011;4391;48.678;9.280;2023-02-28T14:02:08;9.82;;;4.63;;
8708;SDS011;4391;48.678;9.280;2023-02-28T14:04:54;7.80;;;5.30;;
8708;SDS011;4391;48.678;9.280;2023-02-28T14:07:32;8.43;;;5.27;;
8708;SDS011;4391;48.678;9.280;2023-02-28T14:10:05;7.45;;;4.90;;
8708;SDS011;4391;48.678;9.280;2023-02-28T14:18:25;9.85;;;5.30;;
8708;SDS011;4391;48.678;9.280;2023-02-28T14:20:57;10.53;;;5.33;;
8708;SDS011;4391;48.678;9.280;2023-02-28T14:29:29;10.55;;;6.15;;
8708;SDS011;4391;48.678;9.280;2023-02-28T14:32:11;10.02;;;5.80;;
8708;SDS011;4391;48.678;9.280;2023-02-28T14:34:48;9.05;;;5.15;;
8708;SDS011;4391;48.678;9.280;2023-02-28T14:37:19;8.47;;;5.70;;
8708;SDS011;4391;48.678;9.280;2023-02-28T14:39:52;7.93;;;5.07;;
8708;SDS011;4391;48.678;9.280;2023-02-28T14:42:27;8.93;;;5.22;;
8708;SDS011;4391;48.678;9.280;2023-02-28T14:44:56;8.98;;;5.80;;
8708;SDS011;4391;48.678;9.280;2023-02-28T14:47:24;9.68;;;5.70;;
8708;SDS011;4391;48.678;9.280;2023-02-28T14:49:56;9.30;;;5.90;;
8708;SDS011;4391;48.678;9.280;2023-02-28T14:52:24;8.70;;;5.90;;
8708;SDS011;4391;48.678;9.280;2023-02-28T14:54:54;8.00;;;5.00;;
8708;SDS011;4391;48.678;9.280;2023-02-28T14:57:24;10.07;;;5.53;;
8708;SDS011;4391;48.678;9.280;2023-02-28T14:59:59;10.23;;;5.50;;
8708;SDS011;4391;48.678;9.280;2023-02-28T15:02:29;13.33;;;5.90;;
8708;SDS011;4391;48.678;9.280;2023-02-28T15:05:02;9.20;;;5.38;;
8708;SDS011;4391;48.678;9.280;2023-02-28T15:07:45;8.88;;;5.30;;
8708;SDS011;4391;48.678;9.280;2023-02-28T15:10:15;11.75;;;5.60;;
8708;SDS011;4391;48.678;9.280;2023-02-28T15:12:45;10.07;;;5.72;;
8708;SDS011;4391;48.678;9.280;2023-02-28T15:15:17;10.80;;;5.63;;
8708;SDS011;4391;48.678;9.280;2023-02-28T15:17:48;10.65;;;5.93;;
8708;SDS011;4391;48.678;9.280;2023-02-28T15:20:20;11.73;;;5.90;;
8708;SDS011;4391;48.678;9.280;2023-02-28T15:22:47;11.40;;;6.70;;
8708;SDS011;4391;48.678;9.280;2023-02-28T15:25:18;12.63;;;5.53;;
8708;SDS011;4391;48.678;9.280;2023-02-28T15:27:47;11.63;;;5.37;;
8708;SDS011;4391;48.678;9.280;2023-02-28T15:30:17;9.63;;;5.40;;
8708;SDS011;4391;48.678;9.280;2023-02-28T15:32:46;9.60;;;5.32;;
8708;SDS011;4391;48.678;9.280;2023-02-28T15:35:31;10.88;;;5.45;;
8708;SDS011;4391;48.678;9.280;2023-02-28T15:38:00;10.48;;;5.75;;
8708;SDS011;4391;48.678;9.280;2023-02-28T15:40:31;9.80;;;5.47;;
8708;SDS011;4391;48.678;9.280;2023-02-28T15:43:06;11.10;;;5.47;;
8708;SDS011;4391;48.678;9.280;2023-02-28T15:45:40;11.48;;;5.40;;
8708;SDS011;4391;48.678;9.280;2023-02-28T15:48:14;10.75;;;5.78;;
8708;SDS011;4391;48.678;9.280;2023-02-28T15:50:44;11.23;;;5.85;;
8708;SDS011;4391;48.678;9.280;2023-02-28T15:53:15;9.83;;;5.60;;
8708;SDS011;4391;48.678;9.280;2023-02-28T15:55:45;11.52;;;5.82;;
8708;SDS011;4391;48.678;9.280;2023-02-28T15:58:19;10.48;;;5.47;;
8708;SDS011;4391;48.678;9.280;2023-02-28T16:00:59;10.15;;;5.47;;
8708;SDS011;4391;48.678;9.280;2023-02-28T16:03:34;12.52;;;5.72;;
8708;SDS011;4391;48.678;9.280;2023-02-28T16:06:12;11.10;;;6.10;;
8708;SDS011;4391;48.678;9.280;2023-02-28T16:08:55;10.80;;;5.95;;
8708;SDS011;4391;48.678;9.280;2023-02-28T16:11:21;11.70;;;5.47;;
8708;SDS011;4391;48.678;9.280;2023-02-28T16:13:49;9.82;;;5.78;;
8708;SDS011;4391;48.678;9.280;2023-02-28T16:16:17;11.07;;;5.85;;
8708;SDS011;4391;48.678;9.280;2023-02-28T16:18:45;11.77;;;5.67;;